sensor_id;sensor_type;location;lat;lon;timestamp;pressure;altitude;pressure_sealevel;temperature;humidity
59419;BME280;45224;50.904;6.038;2023-05-02T00:01:02;100165.06;;;11.56;87.04
59419;BME280;45224;50.904;6.038;2023-05-02T00:02:34;100165.94;;;11.55;86.75
59419;BME280;45224;50.904;6.038;2023-05-02T00:04:06;100167.66;;;11.51;87.06
59419;BME280;45224;50.904;6.038;2023-05-02T00:05:36;100173.69;;;11.46;88.08
59419;BME280;45224;50.904;6.038;2023-05-02T00:07:07;100167.63;;;11.38;88.05
59419;BME280;45224;50.904;6.038;2023-05-02T00:08:38;100177.13;;;11.40;87.75
59419;BME280;45224;50.904;6.038;2023-05-02T00:10:08;100168.47;;;11.35;88.16
59419;BME280;45224;50.904;6.038;2023-05-02T00:11:39;100167.59;;;11.28;88.25
59419;BME280;45224;50.904;6.038;2023-05-02T00:13:09;100178.84;;;11.32;88.03
59419;BME280;45224;50.904;6.038;2023-05-02T00:14:40;100177.09;;;11.31;88.03
59419;BME280;45224;50.904;6.038;2023-05-02T00:16:10;100182.28;;;11.31;88.16
59419;BME280;45224;50.904;6.038;2023-05-02T00:17:41;100180.53;;;11.30;88.10
59419;BME280;45224;50.904;6.038;2023-05-02T00:19:12;100176.25;;;11.29;87.96
59419;BME280;45224;50.904;6.038;2023-05-02T00:20:43;100171.88;;;11.19;89.50
59419;BME280;45224;50.904;6.038;2023-05-02T00:22:14;100183.97;;;11.20;89.40
59419;BME280;45224;50.904;6.038;2023-05-02T00:23:44;100171.00;;;11.15;90.68
59419;BME280;45224;50.904;6.038;2023-05-02T00:25:15;100177.03;;;11.15;90.74
59419;BME280;45224;50.904;6.038;2023-05-02T00:26:46;100178.75;;;11.15;90.42
59419;BME280;45224;50.904;6.038;2023-05-02T00:28:17;100164.94;;;11.08;91.02
59419;BME280;45224;50.904;6.038;2023-05-02T00:29:47;100171.88;;;11.19;90.42
59419;BME280;45224;50.904;6.038;2023-05-02T00:31:18;100175.34;;;11.24;90.18
59419;BME280;45224;50.904;6.038;2023-05-02T00:32:49;100175.34;;;11.21;90.27
59419;BME280;45224;50.904;6.038;2023-05-02T00:34:19;100175.34;;;11.21;90.46
59419;BME280;45224;50.904;6.038;2023-05-02T00:35:50;100174.44;;;11.14;91.84
59419;BME280;45224;50.904;6.038;2023-05-02T00:37:25;100177.03;;;11.15;91.36
59419;BME280;45224;50.904;6.038;2023-05-02T00:38:55;100179.63;;;11.14;91.49
59419;BME280;45224;50.904;6.038;2023-05-02T00:40:26;100186.47;;;11.06;92.74
59419;BME280;45224;50.904;6.038;2023-05-02T00:41:57;100189.03;;;11.01;93.07
59419;BME280;45224;50.904;6.038;2023-05-02T00:43:29;100191.66;;;11.03;93.44
59419;BME280;45224;50.904;6.038;2023-05-02T00:45:01;100189.94;;;11.03;92.84
59419;BME280;45224;50.904;6.038;2023-05-02T00:46:33;100189.97;;;11.08;92.79
59419;BME280;45224;50.904;6.038;2023-05-02T00:48:04;100195.13;;;11.11;92.40
59419;BME280;45224;50.904;6.038;2023-05-02T00:49:34;100193.41;;;11.10;92.60
59419;BME280;45224;50.904;6.038;2023-05-02T00:51:05;100191.69;;;11.13;92.53
59419;BME280;45224;50.904;6.038;2023-05-02T00:52:37;100201.22;;;11.18;92.14
59419;BME280;45224;50.904;6.038;2023-05-02T00:54:08;100202.06;;;11.17;92.87
59419;BME280;45224;50.904;6.038;2023-05-02T00:55:40;100202.94;;;11.19;92.81
59419;BME280;45224;50.904;6.038;2023-05-02T00:57:10;100206.41;;;11.18;93.11
59419;BME280;45224;50.904;6.038;2023-05-02T00:58:42;100199.47;;;11.13;93.49
59419;BME280;45224;50.904;6.038;2023-05-02T01:00:13;100201.13;;;11.02;94.91
59419;BME280;45224;50.904;6.038;2023-05-02T01:03:45;100209.75;;;11.01;95.82
59419;BME280;45224;50.904;6.038;2023-05-02T01:05:25;100214.94;;;10.96;96.35
59419;BME280;45224;50.904;6.038;2023-05-02T01:08:55;100213.13;;;10.85;98.44
59419;BME280;45224;50.904;6.038;2023-05-02T01:10:51;100209.69;;;10.89;98.01
59419;BME280;45224;50.904;6.038;2023-05-02T01:12:31;100214.78;;;10.76;99.17
59419;BME280;45224;50.904;6.038;2023-05-02T01:14:07;100217.28;;;10.58;100.00
59419;BME280;45224;50.904;6.038;2023-05-02T01:15:40;100212.97;;;10.60;100.00
59419;BME280;45224;50.904;6.038;2023-05-02T01:17:13;100216.47;;;10.68;100.00
59419;BME280;45224;50.904;6.038;2023-05-02T01:18:46;100213.03;;;10.66;100.00
59419;BME280;45224;50.904;6.038;2023-05-02T01:20:20;100222.50;;;10.70;100.00
59419;BME280;45224;50.904;6.038;2023-05-02T01:21:53;100226.63;;;10.42;100.00
59419;BME280;45224;50.904;6.038;2023-05-02T01:25:19;100217.25;;;10.53;100.00
59419;BME280;45224;50.904;6.038;2023-05-02T01:27:06;100231.81;;;10.44;100.00
59419;BME280;45224;50.904;6.038;2023-05-02T01:28:59;100223.19;;;10.45;100.00
59419;BME280;45224;50.904;6.038;2023-05-02T01:30:33;100237.94;;;10.56;100.00
59419;BME280;45224;50.904;6.038;2023-05-02T01:32:07;100233.66;;;10.60;100.00
59419;BME280;45224;50.904;6.038;2023-05-02T01:33:38;100230.22;;;10.66;100.00
59419;BME280;45224;50.904;6.038;2023-05-02T01:35:10;100228.56;;;10.69;100.00
59419;BME280;45224;50.904;6.038;2023-05-02T01:36:43;100236.22;;;10.58;100.00
59419;BME280;45224;50.904;6.038;2023-05-02T01:38:16;100237.06;;;10.53;100.00
59419;BME280;45224;50.904;6.038;2023-05-02T01:39:49;100235.34;;;10.55;100.00
59419;BME280;45224;50.904;6.038;2023-05-02T01:41:24;100241.28;;;10.45;100.00
59419;BME280;45224;50.904;6.038;2023-05-02T01:42:56;100240.44;;;10.46;100.00
59419;BME280;45224;50.904;6.038;2023-05-02T01:44:27;100239.63;;;10.50;100.00
59419;BME280;45224;50.904;6.038;2023-05-02T01:46:01;100237.03;;;10.50;100.00
59419;BME280;45224;50.904;6.038;2023-05-02T01:47:34;100233.59;;;10.54;100.00
59419;BME280;45224;50.904;6.038;2023-05-02T01:49:06;100237.09;;;10.62;100.00
59419;BME280;45224;50.904;6.038;2023-05-02T01:50:40;100233.69;;;10.66;100.00
59419;BME280;45224;50.904;6.038;2023-05-02T01:52:14;100235.41;;;10.67;100.00
59419;BME280;45224;50.904;6.038;2023-05-02T01:53:47;100225.97;;;10.69;100.00
59419;BME280;45224;50.904;6.038;2023-05-02T01:55:20;100227.66;;;10.63;100.00
59419;BME280;45224;50.904;6.038;2023-05-02T01:56:51;100230.25;;;10.64;100.00
59419;BME280;45224;50.904;6.038;2023-05-02T01:58:22;100236.34;;;10.74;100.00
59419;BME280;45224;50.904;6.038;2023-05-02T01:59:55;100237.22;;;10.77;100.00
59419;BME280;45224;50.904;6.038;2023-05-02T02:01:27;100230.34;;;10.80;100.00
59419;BME280;45224;50.904;6.038;2023-05-02T02:03:00;100245.81;;;10.76;100.00
59419;BME280;45224;50.904;6.038;2023-05-02T02:04:34;100239.84;;;10.84;100.00
59419;BME280;45224;50.904;6.038;2023-05-02T02:06:07;100240.69;;;10.80;100.00
59419;BME280;45224;50.904;6.038;2023-05-02T02:07:38;100236.41;;;10.85;100.00
59419;BME280;45224;50.904;6.038;2023-05-02T02:09:09;100223.44;;;10.82;100.00
59419;BME280;45224;50.904;6.038;2023-05-02T02:10:42;100245.91;;;10.86;100.00
59419;BME280;45224;50.904;6.038;2023-05-02T02:12:26;100240.72;;;10.86;100.00
59419;BME280;45224;50.904;6.038;2023-05-02T02:14:05;100242.44;;;10.90;100.00
59419;BME280;45224;50.904;6.038;2023-05-02T02:15:37;100239.88;;;10.90;100.00
59419;BME280;45224;50.904;6.038;2023-05-02T02:17:29;100245.94;;;10.93;100.00
59419;BME280;45224;50.904;6.038;2023-05-02T02:19:05;100250.25;;;10.94;100.00
59419;BME280;45224;50.904;6.038;2023-05-02T02:20:41;100244.22;;;10.94;100.00
59419;BME280;45224;50.904;6.038;2023-05-02T02:22:13;100251.13;;;11.00;100.00
59419;BME280;45224;50.904;6.038;2023-05-02T02:23:46;100253.75;;;11.03;100.00
59419;BME280;45224;50.904;6.038;2023-05-02T02:25:17;100251.13;;;11.00;100.00
59419;BME280;45224;50.904;6.038;2023-05-02T02:26:48;100252.91;;;11.04;100.00
59419;BME280;45224;50.904;6.038;2023-05-02T02:28:20;100256.34;;;11.07;100.00
59419;BME280;45224;50.904;6.038;2023-05-02T02:29:51;100254.66;;;11.08;100.00
59419;BME280;45224;50.904;6.038;2023-05-02T02:31:22;100257.25;;;11.09;100.00
59419;BME280;45224;50.904;6.038;2023-05-02T02:32:54;100259.81;;;11.12;99.65
59419;BME280;45224;50.904;6.038;2023-05-02T02:34:25;100258.97;;;11.12;99.94
59419;BME280;45224;50.904;6.038;2023-05-02T02:36:23;100255.50;;;11.07;100.00
59419;BME280;45224;50.904;6.038;2023-05-02T02:38:15;100263.28;;;11.11;100.00
59419;BME280;45224;50.904;6.038;2023-05-02T02:40:08;100255.53;;;11.11;100.00
59419;BME280;45224;50.904;6.038;2023-05-02T02:41:52;100258.09;;;11.10;100.00
59419;BME280;45224;50.904;6.038;2023-05-02T02:45:34;100258.97;;;11.12;100.00
59419;BME280;45224;50.904;6.038;2023-05-02T02:47:22;100261.56;;;11.13;100.00
59419;BME280;45224;50.904;6.038;2023-05-02T02:49:21;100256.41;;;11.17;99.81
59419;BME280;45224;50.904;6.038;2023-05-02T02:53:05;100265.03;;;11.15;99.95
59419;BME280;45224;50.904;6.038;2023-05-02T02:54:45;100265.00;;;11.12;100.00
59419;BME280;45224;50.904;6.038;2023-05-02T02:56:26;100259.81;;;11.12;100.00
59419;BME280;45224;50.904;6.038;2023-05-02T02:58:03;100263.28;;;11.11;100.00
59419;BME280;45224;50.904;6.038;2023-05-02T02:59:41;100261.56;;;11.13;100.00
59419;BME280;45224;50.904;6.038;2023-05-02T03:01:20;100265.91;;;11.18;99.66
59419;BME280;45224;50.904;6.038;2023-05-02T03:02:52;100264.19;;;11.18;99.15
59419;BME280;45224;50.904;6.038;2023-05-02T03:04:25;100266.81;;;11.23;99.36
59419;BME280;45224;50.904;6.038;2023-05-02T03:05:57;100260.75;;;11.24;99.07
59419;BME280;45224;50.904;6.038;2023-05-02T03:07:29;100265.91;;;11.24;99.27
59419;BME280;45224;50.904;6.038;2023-05-02T03:09:02;100270.22;;;11.22;99.33
59419;BME280;45224;50.904;6.038;2023-05-02T03:10:34;100269.38;;;11.21;99.90
59419;BME280;45224;50.904;6.038;2023-05-02T03:12:04;100270.22;;;11.19;100.00
59419;BME280;45224;50.904;6.038;2023-05-02T03:13:37;100265.03;;;11.19;99.91
59419;BME280;45224;50.904;6.038;2023-05-02T03:16:00;100274.59;;;11.26;99.33
59419;BME280;45224;50.904;6.038;2023-05-02T03:17:05;100278.84;;;11.22;99.59
59419;BME280;45224;50.904;6.038;2023-05-02T03:18:39;100278.84;;;11.22;99.51
59419;BME280;45224;50.904;6.038;2023-05-02T03:20:10;100286.63;;;11.24;99.82
59419;BME280;45224;50.904;6.038;2023-05-02T03:21:40;100286.63;;;11.19;100.00
59419;BME280;45224;50.904;6.038;2023-05-02T03:23:18;100280.56;;;11.19;100.00
59419;BME280;45224;50.904;6.038;2023-05-02T03:24:48;100278.84;;;11.14;100.00
59419;BME280;45224;50.904;6.038;2023-05-02T03:26:19;100291.81;;;11.21;99.92
59419;BME280;45224;50.904;6.038;2023-05-02T03:27:51;100290.94;;;11.22;99.92
59419;BME280;45224;50.904;6.038;2023-05-02T03:29:22;100288.38;;;11.23;99.37
59419;BME280;45224;50.904;6.038;2023-05-02T03:30:53;100291.78;;;11.14;100.00
59419;BME280;45224;50.904;6.038;2023-05-02T03:32:25;100290.03;;;11.12;100.00
59419;BME280;45224;50.904;6.038;2023-05-02T03:33:56;100291.78;;;11.13;100.00
59419;BME280;45224;50.904;6.038;2023-05-02T03:35:27;100290.88;;;11.11;100.00
59419;BME280;45224;50.904;6.038;2023-05-02T03:36:57;100297.78;;;11.13;100.00
59419;BME280;45224;50.904;6.038;2023-05-02T03:38:29;100287.44;;;11.13;100.00
59419;BME280;45224;50.904;6.038;2023-05-02T03:40:02;100290.06;;;11.20;100.00
59419;BME280;45224;50.904;6.038;2023-05-02T03:41:33;100298.69;;;11.17;100.00
59419;BME280;45224;50.904;6.038;2023-05-02T03:43:09;100290.91;;;11.15;100.00
59419;BME280;45224;50.904;6.038;2023-05-02T03:44:40;100294.38;;;11.16;100.00
59419;BME280;45224;50.904;6.038;2023-05-02T03:46:11;100294.38;;;11.18;100.00
59419;BME280;45224;50.904;6.038;2023-05-02T03:47:45;100289.22;;;11.18;99.73
59419;BME280;45224;50.904;6.038;2023-05-02T03:49:15;100303.00;;;11.17;100.00
59419;BME280;45224;50.904;6.038;2023-05-02T03:50:49;100305.56;;;11.15;100.00
59419;BME280;45224;50.904;6.038;2023-05-02T03:52:20;100304.75;;;11.18;100.00
59419;BME280;45224;50.904;6.038;2023-05-02T03:53:52;100305.59;;;11.18;99.93
59419;BME280;45224;50.904;6.038;2023-05-02T03:55:22;100305.56;;;11.13;100.00
59419;BME280;45224;50.904;6.038;2023-05-02T03:56:54;100312.44;;;11.10;100.00
59419;BME280;45224;50.904;6.038;2023-05-02T03:58:30;100313.31;;;11.10;100.00
59419;BME280;45224;50.904;6.038;2023-05-02T04:00:01;100315.88;;;11.10;99.46
59419;BME280;45224;50.904;6.038;2023-05-02T04:01:41;100317.63;;;11.08;100.00
59419;BME280;45224;50.904;6.038;2023-05-02T04:03:13;100319.34;;;11.12;99.58
59419;BME280;45224;50.904;6.038;2023-05-02T04:04:46;100328.84;;;11.10;99.94
59419;BME280;45224;50.904;6.038;2023-05-02T04:06:19;100311.56;;;11.06;99.38
59419;BME280;45224;50.904;6.038;2023-05-02T04:07:56;100326.28;;;11.17;99.46
59419;BME280;45224;50.904;6.038;2023-05-02T04:09:27;100322.81;;;11.13;99.29
59419;BME280;45224;50.904;6.038;2023-05-02T04:11:02;100327.97;;;11.10;100.00
59419;BME280;45224;50.904;6.038;2023-05-02T04:12:34;100334.06;;;11.20;99.70
59419;BME280;45224;50.904;6.038;2023-05-02T04:14:05;100325.44;;;11.18;99.58
59419;BME280;45224;50.904;6.038;2023-05-02T04:15:36;100333.19;;;11.16;100.00
59419;BME280;45224;50.904;6.038;2023-05-02T04:17:07;100339.19;;;11.10;100.00
59419;BME280;45224;50.904;6.038;2023-05-02T04:18:48;100331.41;;;11.10;100.00
59419;BME280;45224;50.904;6.038;2023-05-02T04:20:19;100340.91;;;11.08;100.00
59419;BME280;45224;50.904;6.038;2023-05-02T04:21:52;100335.75;;;11.10;100.00
59419;BME280;45224;50.904;6.038;2023-05-02T04:23:23;100341.78;;;11.10;100.00
59419;BME280;45224;50.904;6.038;2023-05-02T04:24:58;100347.66;;;10.91;100.00
59419;BME280;45224;50.904;6.038;2023-05-02T04:26:30;100346.00;;;10.99;100.00
59419;BME280;45224;50.904;6.038;2023-05-02T04:28:09;100346.88;;;11.01;100.00
59419;BME280;45224;50.904;6.038;2023-05-02T04:29:40;100351.22;;;11.05;100.00
59419;BME280;45224;50.904;6.038;2023-05-02T04:31:11;100354.66;;;11.04;100.00
59419;BME280;45224;50.904;6.038;2023-05-02T04:32:42;100357.22;;;10.98;100.00
59419;BME280;45224;50.904;6.038;2023-05-02T04:34:13;100368.25;;;10.77;100.00
59419;BME280;45224;50.904;6.038;2023-05-02T04:35:47;100372.50;;;10.72;100.00
59419;BME280;45224;50.904;6.038;2023-05-02T04:37:19;100372.94;;;10.28;100.00
59419;BME280;45224;50.904;6.038;2023-05-02T04:38:50;100377.59;;;9.83;100.00
59419;BME280;45224;50.904;6.038;2023-05-02T04:40:22;100377.66;;;9.89;100.00
59419;BME280;45224;50.904;6.038;2023-05-02T04:41:57;100376.88;;;9.93;100.00
59419;BME280;45224;50.904;6.038;2023-05-02T04:43:30;100379.44;;;9.92;100.00
59419;BME280;45224;50.904;6.038;2023-05-02T04:45:05;100371.53;;;9.79;100.00
59419;BME280;45224;50.904;6.038;2023-05-02T04:46:35;100377.41;;;9.67;100.00
59419;BME280;45224;50.904;6.038;2023-05-02T04:48:06;100381.69;;;9.67;100.00
59419;BME280;45224;50.904;6.038;2023-05-02T04:49:36;100374.72;;;9.60;100.00
59419;BME280;45224;50.904;6.038;2023-05-02T04:51:08;100378.38;;;9.76;100.00
59419;BME280;45224;50.904;6.038;2023-05-02T04:52:39;100374.81;;;9.66;100.00
59419;BME280;45224;50.904;6.038;2023-05-02T04:54:11;100382.63;;;9.74;100.00
59419;BME280;45224;50.904;6.038;2023-05-02T04:55:42;100386.69;;;9.55;100.00
59419;BME280;45224;50.904;6.038;2023-05-02T04:57:13;100388.53;;;9.65;100.00
59419;BME280;45224;50.904;6.038;2023-05-02T04:58:47;100388.63;;;9.69;100.00
59419;BME280;45224;50.904;6.038;2023-05-02T05:00:18;100389.25;;;9.53;100.00
59419;BME280;45224;50.904;6.038;2023-05-02T05:01:49;100392.00;;;9.67;100.00
59419;BME280;45224;50.904;6.038;2023-05-02T05:03:21;100395.53;;;9.74;100.00
59419;BME280;45224;50.904;6.038;2023-05-02T05:04:51;100395.69;;;9.86;100.00
59419;BME280;45224;50.904;6.038;2023-05-02T05:06:23;100398.13;;;9.74;100.00
59419;BME280;45224;50.904;6.038;2023-05-02T05:07:53;100398.25;;;9.83;100.00
59419;BME280;45224;50.904;6.038;2023-05-02T05:09:27;100393.25;;;9.95;100.00
59419;BME280;45224;50.904;6.038;2023-05-02T05:10:57;100393.16;;;9.89;100.00
59419;BME280;45224;50.904;6.038;2023-05-02T05:12:28;100405.06;;;9.78;100.00
59419;BME280;45224;50.904;6.038;2023-05-02T05:13:59;100400.59;;;9.64;100.00
59419;BME280;45224;50.904;6.038;2023-05-02T05:15:32;100415.22;;;9.65;100.00
59419;BME280;45224;50.904;6.038;2023-05-02T05:17:04;100416.19;;;9.72;100.00
59419;BME280;45224;50.904;6.038;2023-05-02T05:18:35;100412.03;;;9.85;100.00
59419;BME280;45224;50.904;6.038;2023-05-02T05:20:10;100423.22;;;9.82;100.00
59419;BME280;45224;50.904;6.038;2023-05-02T05:21:42;100421.31;;;9.69;100.00
59419;BME280;45224;50.904;6.038;2023-05-02T05:23:13;100430.84;;;9.75;100.00
59419;BME280;45224;50.904;6.038;2023-05-02T05:24:50;100425.81;;;9.84;100.00
59419;BME280;45224;50.904;6.038;2023-05-02T05:26:22;100433.56;;;9.84;100.00
59419;BME280;45224;50.904;6.038;2023-05-02T05:27:55;100429.41;;;9.95;100.00
59419;BME280;45224;50.904;6.038;2023-05-02T05:29:26;100426.69;;;9.84;100.00
59419;BME280;45224;50.904;6.038;2023-05-02T05:31:03;100432.91;;;10.00;100.00
59419;BME280;45224;50.904;6.038;2023-05-02T05:32:34;100429.41;;;9.95;100.00
59419;BME280;45224;50.904;6.038;2023-05-02T05:34:04;100442.47;;;10.06;100.00
59419;BME280;45224;50.904;6.038;2023-05-02T05:35:36;100442.59;;;10.18;100.00
59419;BME280;45224;50.904;6.038;2023-05-02T05:37:07;100446.91;;;10.18;100.00
59419;BME280;45224;50.904;6.038;2023-05-02T05:38:37;100446.06;;;10.22;100.00
59419;BME280;45224;50.904;6.038;2023-05-02T05:40:10;100444.47;;;10.32;100.00
59419;BME280;45224;50.904;6.038;2023-05-02T05:41:42;100450.56;;;10.32;100.00
59419;BME280;45224;50.904;6.038;2023-05-02T05:43:15;100454.94;;;10.39;100.00
59419;BME280;45224;50.904;6.038;2023-05-02T05:44:45;100451.53;;;10.42;100.00
59419;BME280;45224;50.904;6.038;2023-05-02T05:46:16;100456.59;;;10.34;100.00
59419;BME280;45224;50.904;6.038;2023-05-02T05:47:46;100462.72;;;10.43;100.00
59419;BME280;45224;50.904;6.038;2023-05-02T05:49:17;100454.91;;;10.38;100.00
59419;BME280;45224;50.904;6.038;2023-05-02T05:50:49;100463.59;;;10.45;100.00
59419;BME280;45224;50.904;6.038;2023-05-02T05:52:21;100460.91;;;10.32;100.00
59419;BME280;45224;50.904;6.038;2023-05-02T05:53:52;100463.56;;;10.41;100.00
59419;BME280;45224;50.904;6.038;2023-05-02T05:55:22;100464.50;;;10.47;100.00
59419;BME280;45224;50.904;6.038;2023-05-02T05:56:53;100462.84;;;10.52;100.00
59419;BME280;45224;50.904;6.038;2023-05-02T05:58:24;100468.09;;;10.58;100.00
59419;BME280;45224;50.904;6.038;2023-05-02T05:59:56;100468.94;;;10.58;100.00
59419;BME280;45224;50.904;6.038;2023-05-02T06:01:27;100457.69;;;10.55;100.00
59419;BME280;45224;50.904;6.038;2023-05-02T06:02:58;100468.78;;;10.45;100.00
59419;BME280;45224;50.904;6.038;2023-05-02T06:04:31;100461.06;;;10.48;100.00
59419;BME280;45224;50.904;6.038;2023-05-02T06:06:01;100468.09;;;10.58;100.00
59419;BME280;45224;50.904;6.038;2023-05-02T06:07:32;100474.69;;;10.34;100.00
59419;BME280;45224;50.904;6.038;2023-05-02T06:09:02;100474.81;;;10.44;100.00
59419;BME280;45224;50.904;6.038;2023-05-02T06:10:34;100480.91;;;10.50;100.00
59419;BME280;45224;50.904;6.038;2023-05-02T06:12:05;100485.16;;;10.44;100.00
59419;BME280;45224;50.904;6.038;2023-05-02T06:13:37;100481.78;;;10.51;100.00
59419;BME280;45224;50.904;6.038;2023-05-02T06:15:08;100483.56;;;10.55;100.00
59419;BME280;45224;50.904;6.038;2023-05-02T06:16:39;100480.97;;;10.55;100.00
59419;BME280;45224;50.904;6.038;2023-05-02T06:18:10;100481.81;;;10.54;100.00
59419;BME280;45224;50.904;6.038;2023-05-02T06:19:40;100488.66;;;10.49;100.00
59419;BME280;45224;50.904;6.038;2023-05-02T06:21:11;100485.34;;;10.62;100.00
59419;BME280;45224;50.904;6.038;2023-05-02T06:22:42;100487.09;;;10.63;100.00
59419;BME280;45224;50.904;6.038;2023-05-02T06:24:12;100484.50;;;10.63;100.00
59419;BME280;45224;50.904;6.038;2023-05-02T06:25:43;100488.84;;;10.64;100.00
59419;BME280;45224;50.904;6.038;2023-05-02T06:27:13;100493.13;;;10.65;100.00
59419;BME280;45224;50.904;6.038;2023-05-02T06:28:44;100498.34;;;10.68;100.00
59419;BME280;45224;50.904;6.038;2023-05-02T06:30:14;100497.50;;;10.68;100.00
59419;BME280;45224;50.904;6.038;2023-05-02T06:31:45;100509.56;;;10.70;100.00
59419;BME280;45224;50.904;6.038;2023-05-02T06:33:15;100492.22;;;10.60;100.00
59419;BME280;45224;50.904;6.038;2023-05-02T06:34:46;100505.22;;;10.65;100.00
59419;BME280;45224;50.904;6.038;2023-05-02T06:36:16;100510.28;;;10.55;100.00
59419;BME280;45224;50.904;6.038;2023-05-02T06:37:47;100507.75;;;10.60;100.00
59419;BME280;45224;50.904;6.038;2023-05-02T06:39:17;100512.88;;;10.57;100.00
59419;BME280;45224;50.904;6.038;2023-05-02T06:40:48;100520.72;;;10.65;100.00
59419;BME280;45224;50.904;6.038;2023-05-02T06:42:19;100514.59;;;10.55;100.00
59419;BME280;45224;50.904;6.038;2023-05-02T06:43:49;100525.03;;;10.64;100.00
59419;BME280;45224;50.904;6.038;2023-05-02T06:45:20;100522.44;;;10.66;100.00
59419;BME280;45224;50.904;6.038;2023-05-02T06:46:50;100525.94;;;10.68;100.00
59419;BME280;45224;50.904;6.038;2023-05-02T06:48:21;100520.63;;;10.55;100.00
59419;BME280;45224;50.904;6.038;2023-05-02T06:49:52;100523.97;;;10.47;100.00
59419;BME280;45224;50.904;6.038;2023-05-02T06:51:23;100528.31;;;10.51;100.00
59419;BME280;45224;50.904;6.038;2023-05-02T06:52:53;100528.38;;;10.57;100.00
59419;BME280;45224;50.904;6.038;2023-05-02T06:54:24;100532.81;;;10.64;100.00
59419;BME280;45224;50.904;6.038;2023-05-02T06:55:55;100531.00;;;10.58;100.00
59419;BME280;45224;50.904;6.038;2023-05-02T06:57:26;100538.56;;;10.45;100.00
59419;BME280;45224;50.904;6.038;2023-05-02T06:58:57;100541.19;;;10.46;100.00
59419;BME280;45224;50.904;6.038;2023-05-02T07:00:27;100546.38;;;10.49;100.00
59419;BME280;45224;50.904;6.038;2023-05-02T07:01:57;100544.69;;;10.50;100.00
59419;BME280;45224;50.904;6.038;2023-05-02T07:03:28;100541.28;;;10.55;100.00
59419;BME280;45224;50.904;6.038;2023-05-02T07:04:58;100547.44;;;10.64;100.00
59419;BME280;45224;50.904;6.038;2023-05-02T07:06:29;100550.81;;;10.58;100.00
59419;BME280;45224;50.904;6.038;2023-05-02T07:08:00;100557.50;;;10.40;100.00
59419;BME280;45224;50.904;6.038;2023-05-02T07:09:30;100553.19;;;10.43;100.00
59419;BME280;45224;50.904;6.038;2023-05-02T07:11:01;100555.94;;;10.53;100.00
59419;BME280;45224;50.904;6.038;2023-05-02T07:12:31;100557.63;;;10.50;100.00
59419;BME280;45224;50.904;6.038;2023-05-02T07:14:02;100557.50;;;10.42;100.00
59419;BME280;45224;50.904;6.038;2023-05-02T07:15:32;100563.66;;;10.52;100.00
59419;BME280;45224;50.904;6.038;2023-05-02T07:17:03;100563.47;;;10.38;100.00
59419;BME280;45224;50.904;6.038;2023-05-02T07:18:34;100567.88;;;10.44;100.00
59419;BME280;45224;50.904;6.038;2023-05-02T07:20:05;100561.72;;;10.34;100.00
59419;BME280;45224;50.904;6.038;2023-05-02T07:21:35;100565.16;;;10.34;100.00
59419;BME280;45224;50.904;6.038;2023-05-02T07:23:06;100566.22;;;10.49;100.00
59419;BME280;45224;50.904;6.038;2023-05-02T07:24:40;100572.66;;;10.19;100.00
59419;BME280;45224;50.904;6.038;2023-05-02T07:26:11;100572.97;;;10.37;100.00
59419;BME280;45224;50.904;6.038;2023-05-02T07:27:41;100576.06;;;10.15;100.00
59419;BME280;45224;50.904;6.038;2023-05-02T07:29:12;100585.47;;;10.10;100.00
59419;BME280;45224;50.904;6.038;2023-05-02T07:30:42;100584.63;;;10.12;100.00
59419;BME280;45224;50.904;6.038;2023-05-02T07:32:13;100587.13;;;10.08;100.00
59419;BME280;45224;50.904;6.038;2023-05-02T07:33:43;100578.28;;;9.90;100.00
59419;BME280;45224;50.904;6.038;2023-05-02T07:35:13;100594.94;;;10.11;100.00
59419;BME280;45224;50.904;6.038;2023-05-02T07:36:44;100591.72;;;10.24;100.00
59419;BME280;45224;50.904;6.038;2023-05-02T07:38:14;100594.06;;;10.09;100.00
59419;BME280;45224;50.904;6.038;2023-05-02T07:39:45;100603.66;;;10.19;100.00
59419;BME280;45224;50.904;6.038;2023-05-02T07:41:16;100600.25;;;10.20;100.00
59419;BME280;45224;50.904;6.038;2023-05-02T07:42:47;100600.28;;;10.23;100.00
59419;BME280;45224;50.904;6.038;2023-05-02T07:44:18;100606.44;;;10.31;100.00
59419;BME280;45224;50.904;6.038;2023-05-02T07:45:48;100603.16;;;10.40;99.36
59419;BME280;45224;50.904;6.038;2023-05-02T07:47:19;100592.72;;;10.32;97.50
59419;BME280;45224;50.904;6.038;2023-05-02T07:48:50;100601.28;;;10.31;96.10
59419;BME280;45224;50.904;6.038;2023-05-02T07:50:20;100600.63;;;10.45;96.60
59419;BME280;45224;50.904;6.038;2023-05-02T07:51:52;100612.78;;;10.52;96.07
59419;BME280;45224;50.904;6.038;2023-05-02T07:53:22;100611.22;;;10.63;95.11
59419;BME280;45224;50.904;6.038;2023-05-02T07:54:53;100613.97;;;10.75;93.94
59419;BME280;45224;50.904;6.038;2023-05-02T07:56:24;100602.31;;;10.43;93.53
59419;BME280;45224;50.904;6.038;2023-05-02T07:57:55;100611.31;;;10.71;93.60
59419;BME280;45224;50.904;6.038;2023-05-02T07:59:25;100617.91;;;10.49;92.74
59419;BME280;45224;50.904;6.038;2023-05-02T08:00:56;100605.72;;;10.38;92.66
59419;BME280;45224;50.904;6.038;2023-05-02T08:02:26;100615.53;;;10.66;91.93
59419;BME280;45224;50.904;6.038;2023-05-02T08:03:58;100622.28;;;10.54;90.85
59419;BME280;45224;50.904;6.038;2023-05-02T08:05:28;100620.38;;;10.39;90.29
59419;BME280;45224;50.904;6.038;2023-05-02T08:06:58;100618.16;;;10.67;90.41
59419;BME280;45224;50.904;6.038;2023-05-02T08:08:29;100622.53;;;10.71;89.49
59419;BME280;45224;50.904;6.038;2023-05-02T08:10:00;100627.81;;;10.79;88.33